METAR rapporter

 

EKAH - Tirstrup (civ/Mi, Denmark
Afstand fra stationen: SSV 25km
Opdateret: 01/03/2021 13:50
Få skyer
Få skyer
 Vind fra VNV
Vind: VNV 17 km/h
Temperatur: 9°C
Kuldeindeks: 7°C
Dugpunkt: 5°C
Fugtighed: 76%
Barometer: 1034 hPa
Skydække: Få skyer
Sigtbarhed: 10 km
Skyhøjde: Få skyer 488 m
2021/03/01 12:50 EKAH 011250Z AUTO 29009KT 240V310 9999 FEW016/// 09/05 Q1034
EKYT - Alborg, Denmark
Afstand fra stationen: NV 91km
Opdateret: 01/03/2021 13:50
Mest skyet
Mest skyet
 Vind fra V
Vind: V 28 km/h
Temperatur: 6°C
Kuldeindeks: 2°C
Dugpunkt: 4°C
Fugtighed: 87%
Barometer: 1033 hPa
Skydække: Mest skyet
Sigtbarhed: 10 km
Skyhøjde: Delvist skyet 213 m
Mest skyet 274 m
2021/03/01 12:50 EKYT 011250Z AUTO 26015KT 9999 SCT007/// BKN009/// 06/04 Q1033
EKKA - Karup (dan-Afb), Denmark
Afstand fra stationen: V 107km
Opdateret: 01/03/2021 13:50
Delvist skyet
Delvist skyet
 Vind fra VNV
Vind: VNV 20 km/h
Temperatur: 7°C
Kuldeindeks: 4°C
Dugpunkt: 4°C
Fugtighed: 81%
Barometer: 1034 hPa
Skydække: Delvist skyet
Sigtbarhed: 10 km
Skyhøjde: Delvist skyet 427 m
2021/03/01 12:50 EKKA 011250Z 29011KT 9999 SCT014 07/04 Q1034 TEMPO BKN013
 
EKOD - Odense/Beldringe, Denmark
Afstand fra stationen: SSV 116km
Opdateret: 01/03/2021 13:50
Klart
Klart
 Vind fra V
Vind: V 15 km/h
Temperatur: 10°C
Kuldeindeks: 8°C
Dugpunkt: 6°C
Fugtighed: 76%
Barometer: 1035 hPa
Oversigt: Klart
Sigtbarhed: Mere end 10 km
2021/03/01 12:50 EKOD 011250Z 27008KT 230V310 CAVOK 10/06 Q1035
EKBI - Billund Airport, Denmark
Afstand fra stationen: SV 134km
Opdateret: 01/03/2021 13:50
Klart
Klart
 Vind fra VNV
Vind: VNV 26 km/h
Temperatur: 9°C
Kuldeindeks: 6°C
Dugpunkt: 3°C
Fugtighed: 66%
Barometer: 1035 hPa
Skydække: Klart
Sigtbarhed: 10 km
2021/03/01 12:50 EKBI 011250Z AUTO 29014KT 9999 NCD 09/03 Q1035
EKCH - Copenhagen/Kastr, Denmark
Afstand fra stationen: SØ 148km
Opdateret: 01/03/2021 13:50
Mest skyet
Mest skyet
 Vind fra NV
Vind: NV 13 km/h
Temperatur: 8°C
Kuldeindeks: 6°C
Dugpunkt: 5°C
Fugtighed: 82%
Barometer: 1034 hPa
Skydække: Mest skyet
Sigtbarhed: 10 km
Skyhøjde: Mest skyet 366 m
2021/03/01 12:50 EKCH 011250Z 31007KT 270V330 9999 BKN012 08/05 Q1034 NOSIG